Time;durP1;ratioP1;P1;durP2;ratioP2;P2;SDS_P1;SDS_P2;PMS_P1;PMS_P2;Temp;Humidity;BMP_temperature;BMP_pressure;BME280_temperature;BME280_humidity;BME280_pressure;Samples;Min_cycle;Max_cycle;Signal;HPM_P1;HPM_P2
2021/09/25 00:00:06;;;;;;;10.43;4.15;;;;;;;13.96;74.41;100069.61;2181850;80;21048;-79
2021/09/25 00:03:07;;;;;;;7.58;4.20;;;;;;;13.96;74.48;100069.61;2181450;80;21565;-76
2021/09/25 00:06:09;;;;;;;10.23;4.47;;;;;;;13.97;74.61;100072.61;2184909;80;21539;-77
2021/09/25 00:09:11;;;;;;;6.75;4.03;;;;;;;13.97;74.73;100069.95;2184494;80;21024;-76
2021/09/25 00:12:15;;;;;;;9.40;4.30;;;;;;;13.98;74.69;100068.92;2186764;80;21067;-78
2021/09/25 00:15:18;;;;;;;11.08;4.05;;;;;;;13.99;74.78;100060.70;2188894;80;21571;-76
2021/09/25 00:18:19;;;;;;;8.88;4.42;;;;;;;14.00;74.83;100062.89;2184922;80;21533;-76
2021/09/25 00:21:22;;;;;;;10.63;4.97;;;;;;;13.98;74.92;100062.25;2187548;80;21478;-76
2021/09/25 00:24:23;;;;;;;6.50;4.37;;;;;;;13.99;74.99;100055.89;2186584;80;21066;-79
2021/09/25 00:27:25;;;;;;;12.58;5.33;;;;;;;13.98;75.18;100052.91;2195666;79;21056;-76
2021/09/25 00:30:27;;;;;;;8.85;4.20;;;;;;;13.98;75.23;100048.40;2183507;79;21010;-76
2021/09/25 00:33:29;;;;;;;8.70;5.15;;;;;;;13.96;75.23;100046.94;2134921;81;21455;-78
2021/09/25 00:36:30;;;;;;;7.83;4.15;;;;;;;13.97;75.36;100048.61;2142256;82;21028;-79
2021/09/25 00:39:32;;;;;;;6.83;4.65;;;;;;;13.98;75.43;100044.91;2187636;80;21027;-78
2021/09/25 00:42:34;;;;;;;8.80;5.03;;;;;;;13.98;75.53;100048.40;2148708;81;21101;-77
2021/09/25 00:45:35;;;;;;;7.03;4.28;;;;;;;14.00;75.48;100040.22;2150717;81;21110;-78
2021/09/25 00:48:37;;;;;;;7.30;4.60;;;;;;;14.02;75.58;100034.16;2149399;81;21014;-79
2021/09/25 00:51:39;;;;;;;6.72;4.90;;;;;;;14.02;75.54;100035.50;2153341;81;21040;-76
2021/09/25 00:54:40;;;;;;;5.72;4.47;;;;;;;14.04;75.61;100041.48;2144341;81;20994;-77
2021/09/25 00:57:43;;;;;;;7.97;4.78;;;;;;;14.06;75.63;100040.78;2137240;79;20978;-77
2021/09/25 01:00:45;;;;;;;12.45;4.75;;;;;;;14.07;75.70;100045.09;2151705;81;21491;-78
2021/09/25 01:03:46;;;;;;;6.87;4.97;;;;;;;14.04;75.85;100050.30;2168950;81;20984;-78
2021/09/25 01:06:48;;;;;;;8.68;5.05;;;;;;;14.03;76.00;100049.99;2186132;79;21067;-77
2021/09/25 01:09:50;;;;;;;11.97;5.12;;;;;;;14.03;75.94;100050.51;2182079;79;21512;-75
2021/09/25 01:12:51;;;;;;;9.15;4.83;;;;;;;14.04;76.09;100048.96;2185219;80;21456;-76
2021/09/25 01:15:53;;;;;;;12.28;5.90;;;;;;;14.04;76.07;100053.48;2194513;80;21043;-78
2021/09/25 01:18:55;;;;;;;11.10;5.28;;;;;;;14.02;76.12;100051.02;2222355;78;21011;-78
2021/09/25 01:21:56;;;;;;;11.83;5.47;;;;;;;14.02;76.22;100059.02;2236059;78;21051;-76
2021/09/25 01:24:58;;;;;;;10.80;6.00;;;;;;;14.00;76.26;100053.56;2230893;78;21511;-78
2021/09/25 01:28:01;;;;;;;12.95;5.72;;;;;;;13.98;76.33;100062.25;2229070;78;21004;-77
2021/09/25 01:31:04;;;;;;;7.55;5.37;;;;;;;13.96;76.51;100058.42;2228007;78;21043;-78
2021/09/25 01:34:06;;;;;;;8.88;5.80;;;;;;;13.96;76.55;100060.27;2228595;78;21067;-78
2021/09/25 01:37:07;;;;;;;6.55;4.85;;;;;;;13.98;76.51;100067.59;2221032;79;21062;-79
2021/09/25 01:40:10;;;;;;;8.53;5.47;;;;;;;14.00;76.57;100064.23;2228895;78;21640;-77
2021/09/25 01:43:12;;;;;;;9.65;5.72;;;;;;;13.98;76.57;100057.73;2232453;78;21057;-79
2021/09/25 01:46:18;;;;;;;13.93;5.55;;;;;;;13.99;76.54;100060.70;2219494;78;21678;-76
2021/09/25 01:49:20;;;;;;;10.70;5.35;;;;;;;14.01;76.70;100061.87;2238314;78;21031;-78
2021/09/25 01:52:21;;;;;;;8.65;6.20;;;;;;;13.99;76.62;100065.22;2241038;78;21003;-76
2021/09/25 01:55:23;;;;;;;7.75;5.62;;;;;;;14.00;76.61;100058.89;2231469;78;21005;-76
2021/09/25 01:58:24;;;;;;;8.90;5.72;;;;;;;14.02;76.64;100057.69;2237213;78;21009;-79
2021/09/25 02:01:26;;;;;;;11.38;5.90;;;;;;;14.02;76.65;100058.17;2229230;79;20983;-78
2021/09/25 02:04:28;;;;;;;9.38;5.75;;;;;;;14.00;76.67;100050.37;2241534;78;20982;-77
2021/09/25 02:07:29;;;;;;;8.08;5.58;;;;;;;14.00;76.72;100046.38;2234351;78;21018;-76
2021/09/25 02:10:32;;;;;;;8.98;5.67;;;;;;;13.98;76.90;100041.73;2225594;78;21027;-76
2021/09/25 02:13:34;;;;;;;7.30;5.60;;;;;;;13.98;76.88;100041.73;2220134;78;21007;-77
2021/09/25 02:16:36;;;;;;;12.47;5.97;;;;;;;13.97;76.87;100044.09;2215453;78;20984;-78
2021/09/25 02:19:38;;;;;;;9.03;6.00;;;;;;;13.98;76.89;100035.06;2239965;78;21141;-78
2021/09/25 02:22:42;;;;;;;8.05;5.47;;;;;;;13.99;76.90;100030.03;2222133;78;21031;-78
2021/09/25 02:25:44;;;;;;;8.63;5.80;;;;;;;14.00;76.98;100029.55;2231956;78;21037;-77
2021/09/25 02:28:45;;;;;;;8.10;5.40;;;;;;;14.00;76.94;100044.22;2238637;78;21018;-79
2021/09/25 02:31:47;;;;;;;8.70;5.78;;;;;;;14.02;76.95;100052.35;2231412;78;21077;-76
2021/09/25 02:34:48;;;;;;;7.20;6.20;;;;;;;14.04;76.95;100050.81;2234826;78;21486;-78
2021/09/25 02:37:51;;;;;;;8.38;5.90;;;;;;;14.06;76.98;100052.79;2232501;78;21580;-76
2021/09/25 02:40:53;;;;;;;9.90;6.10;;;;;;;14.05;76.98;100056.45;2228151;78;21590;-76
2021/09/25 02:43:55;;;;;;;9.20;5.92;;;;;;;14.06;76.96;100062.12;2236669;78;21535;-79
2021/09/25 02:46:57;;;;;;;8.43;5.92;;;;;;;14.08;76.91;100054.77;2238655;78;21014;-79
2021/09/25 02:49:58;;;;;;;11.40;5.92;;;;;;;14.07;76.89;100057.92;2237772;78;21002;-77
2021/09/25 02:53:00;;;;;;;9.10;6.17;;;;;;;14.10;76.88;100056.20;2228504;78;21018;-78
2021/09/25 02:56:01;;;;;;;10.95;6.83;;;;;;;14.12;76.85;100066.18;2221502;78;21087;-77
2021/09/25 02:59:04;;;;;;;7.62;5.67;;;;;;;14.12;76.89;100058.69;2237420;78;21049;-76
2021/09/25 03:02:06;;;;;;;9.40;5.95;;;;;;;14.10;76.98;100057.53;2229659;78;21342;-76
2021/09/25 03:05:08;;;;;;;8.78;5.70;;;;;;;14.07;77.00;100065.92;2224701;78;21111;-78
2021/09/25 03:08:10;;;;;;;6.72;5.78;;;;;;;14.07;77.11;100067.77;2226768;78;21535;-78
2021/09/25 03:11:11;;;;;;;10.85;5.47;;;;;;;14.03;77.12;100066.52;2230824;78;21024;-78
2021/09/25 03:14:13;;;;;;;7.35;6.03;;;;;;;14.02;77.14;100069.69;2237544;78;21025;-78
2021/09/25 03:17:14;;;;;;;8.53;6.08;;;;;;;14.00;77.21;100070.90;2238336;78;20999;-76
2021/09/25 03:20:17;;;;;;;6.80;5.83;;;;;;;13.99;77.29;100067.89;2231527;78;21111;-78
2021/09/25 03:23:18;;;;;;;7.92;6.08;;;;;;;13.98;77.40;100074.25;2238238;78;20962;-78
2021/09/25 03:26:20;;;;;;;7.87;6.05;;;;;;;13.96;77.38;100071.77;2223313;78;20993;-77
2021/09/25 03:29:21;;;;;;;9.13;6.28;;;;;;;13.98;77.40;100075.59;2236816;78;21010;-77
2021/09/25 03:32:23;;;;;;;8.08;6.25;;;;;;;13.98;77.46;100077.73;2243971;78;21582;-77
2021/09/25 03:35:26;;;;;;;6.65;5.97;;;;;;;14.00;77.50;100070.90;2232600;78;21593;-78
2021/09/25 03:38:29;;;;;;;10.78;6.42;;;;;;;13.98;77.54;100074.25;2234163;78;21488;-77
2021/09/25 03:41:30;;;;;;;8.93;5.85;;;;;;;13.96;77.63;100070.42;2233955;78;20980;-80
2021/09/25 03:44:32;;;;;;;13.10;5.50;;;;;;;13.98;77.61;100071.07;2230551;78;21414;-79
2021/09/25 03:47:34;;;;;;;8.53;6.45;;;;;;;13.97;77.69;100070.77;2213924;79;20996;-77
2021/09/25 03:50:36;;;;;;;10.23;6.12;;;;;;;13.96;77.73;100069.09;2229644;78;20983;-76
2021/09/25 03:53:38;;;;;;;8.43;6.08;;;;;;;13.96;77.72;100070.94;2233438;78;21079;-79
2021/09/25 03:56:39;;;;;;;8.88;6.22;;;;;;;13.99;77.80;100069.23;2224612;78;20982;-79
2021/09/25 03:59:41;;;;;;;7.08;5.85;;;;;;;13.96;77.83;100071.77;2225738;78;21529;-79
2021/09/25 04:02:42;;;;;;;8.33;6.25;;;;;;;13.96;77.94;100069.61;2238156;78;21541;-78
2021/09/25 04:05:44;;;;;;;7.20;6.05;;;;;;;13.96;77.95;100070.94;2239402;78;21006;-77
2021/09/25 04:08:46;;;;;;;7.28;5.67;;;;;;;13.96;78.21;100069.09;2224276;78;21138;-79
2021/09/25 04:11:50;;;;;;;6.85;5.60;;;;;;;13.95;78.06;100063.97;2190708;80;21055;-74
2021/09/25 04:14:52;;;;;;;7.53;5.95;;;;;;;13.93;78.08;100067.32;2186121;80;21075;-76
2021/09/25 04:17:54;;;;;;;7.05;5.95;;;;;;;13.94;78.18;100068.96;2177635;80;21012;-76
2021/09/25 04:20:55;;;;;;;7.75;6.25;;;;;;;13.95;78.13;100070.13;2185085;80;21057;-79
2021/09/25 04:23:57;;;;;;;6.30;5.70;;;;;;;13.96;78.20;100071.77;2187469;80;21051;-77
2021/09/25 04:26:58;;;;;;;8.43;6.37;;;;;;;13.96;78.19;100069.09;2183915;80;21072;-75
2021/09/25 04:30:02;;;;;;;7.87;6.33;;;;;;;13.98;78.23;100072.92;2182377;80;21004;-78
2021/09/25 04:33:07;;;;;;;8.25;5.87;;;;;;;13.98;78.21;100076.41;2140748;81;20969;-78
2021/09/25 04:36:09;;;;;;;7.75;6.62;;;;;;;14.00;78.26;100074.39;2166836;80;21036;-77
2021/09/25 04:39:11;;;;;;;7.75;6.47;;;;;;;14.00;78.30;100077.05;2225868;78;21111;-77
2021/09/25 04:42:13;;;;;;;8.00;6.45;;;;;;;14.01;78.30;100073.88;2231064;78;21554;-78
2021/09/25 04:45:15;;;;;;;9.48;6.90;;;;;;;14.03;78.23;100072.67;2235357;78;21589;-76
2021/09/25 04:48:17;;;;;;;7.45;6.25;;;;;;;14.04;78.30;100082.31;2229409;79;21778;-78
2021/09/25 04:51:19;;;;;;;9.95;6.80;;;;;;;14.04;78.34;100086.31;2218244;79;20965;-77
2021/09/25 04:54:21;;;;;;;10.43;6.72;;;;;;;14.06;78.30;100088.29;2220654;78;20980;-76
2021/09/25 04:57:22;;;;;;;7.80;6.33;;;;;;;14.09;78.34;100091.09;2222861;79;21002;-77
2021/09/25 05:00:24;;;;;;;7.67;6.87;;;;;;;14.08;78.36;100088.94;2240523;78;21021;-77
2021/09/25 05:03:26;;;;;;;9.90;7.05;;;;;;;14.08;78.36;100093.45;2227757;78;21066;-76
2021/09/25 05:06:28;;;;;;;9.58;6.55;;;;;;;14.11;78.34;100087.73;2222977;78;21051;-76
2021/09/25 05:09:30;;;;;;;12.68;6.72;;;;;;;14.16;78.31;100086.62;2225739;78;21603;-76
2021/09/25 05:12:32;;;;;;;9.55;7.30;;;;;;;14.19;78.35;100080.09;2235293;78;20953;-76
2021/09/25 05:15:33;;;;;;;7.67;6.72;;;;;;;14.20;78.31;100078.58;2226244;78;20979;-77
2021/09/25 05:18:35;;;;;;;10.65;7.33;;;;;;;14.23;78.28;100083.53;2232431;78;20995;-77
2021/09/25 05:21:36;;;;;;;8.10;6.92;;;;;;;14.25;78.26;100085.50;2223679;78;21059;-76
2021/09/25 05:24:38;;;;;;;7.58;6.58;;;;;;;14.27;78.32;100086.12;2219799;78;21083;-77
2021/09/25 05:27:40;;;;;;;8.30;6.85;;;;;;;14.30;78.33;100093.77;2227632;78;21514;-76
2021/09/25 05:30:42;;;;;;;12.05;7.53;;;;;;;14.30;78.34;100092.91;2229410;78;21525;-78
2021/09/25 05:33:44;;;;;;;10.48;7.65;;;;;;;14.32;78.39;100098.38;2238264;78;21024;-78
2021/09/25 05:36:45;;;;;;;12.13;7.42;;;;;;;14.35;78.41;100097.17;2231746;78;21226;-76
2021/09/25 05:39:47;;;;;;;8.73;7.35;;;;;;;14.39;78.35;100093.61;2228867;78;20958;-76
2021/09/25 05:42:48;;;;;;;10.53;7.20;;;;;;;14.41;78.44;100103.08;2233541;78;21094;-77
2021/09/25 05:45:50;;;;;;;10.75;7.50;;;;;;;14.43;78.44;100099.72;2222448;79;21005;-76
2021/09/25 05:48:52;;;;;;;12.65;7.37;;;;;;;14.45;78.46;100111.03;2230996;78;21661;-78
2021/09/25 05:51:53;;;;;;;8.60;7.70;;;;;;;14.46;78.57;100110.01;2226294;78;21011;-76
2021/09/25 05:54:56;;;;;;;10.05;7.87;;;;;;;14.50;78.68;100119.30;2238301;78;21016;-77
2021/09/25 05:58:04;;;;;;;9.50;8.05;;;;;;;14.53;78.60;100122.13;2181398;80;21078;-76
2021/09/25 06:01:05;;;;;;;9.65;8.03;;;;;;;14.59;78.57;100121.87;2188834;80;20979;-76
2021/09/25 06:04:07;;;;;;;10.70;7.45;;;;;;;14.64;78.54;100121.61;2178947;80;20995;-76
2021/09/25 06:07:11;;;;;;;9.85;7.97;;;;;;;14.71;78.49;100121.65;2181664;80;20964;-77
2021/09/25 06:10:12;;;;;;;8.93;7.92;;;;;;;14.77;78.48;100120.35;2186154;80;21094;-76
2021/09/25 06:13:14;;;;;;;9.33;7.95;;;;;;;14.83;78.40;100125.95;2182808;80;21464;-77
2021/09/25 06:16:15;;;;;;;11.30;8.90;;;;;;;14.89;78.41;100123.83;2190040;80;21066;-76
2021/09/25 06:19:17;;;;;;;8.45;7.60;;;;;;;14.96;78.35;100118.85;2187279;80;21023;-76
2021/09/25 06:22:19;;;;;;;11.03;7.80;;;;;;;15.03;78.18;100114.87;2180233;80;21094;-78
2021/09/25 06:25:20;;;;;;;10.15;7.83;;;;;;;15.11;78.11;100122.74;2184479;80;20996;-77
2021/09/25 06:28:22;;;;;;;12.82;8.28;;;;;;;15.19;77.99;100121.25;2180753;80;21044;-76
2021/09/25 06:31:24;;;;;;;8.88;7.87;;;;;;;15.27;77.90;100122.13;2159200;80;21011;-77
2021/09/25 06:34:25;;;;;;;8.38;7.60;;;;;;;15.36;77.97;100126.28;2167176;81;21550;-77
2021/09/25 06:37:27;;;;;;;8.15;7.35;;;;;;;15.43;77.73;100127.16;2178675;80;21010;-78
2021/09/25 06:40:28;;;;;;;8.60;7.75;;;;;;;15.51;77.76;100128.81;2174403;80;21517;-79
2021/09/25 06:43:30;;;;;;;8.85;7.92;;;;;;;15.56;77.64;100131.21;2175020;80;21048;-80
2021/09/25 06:46:33;;;;;;;8.75;7.67;;;;;;;15.61;77.57;100126.09;2136822;81;21025;-80
2021/09/25 06:49:35;;;;;;;10.48;9.08;;;;;;;15.68;77.36;100127.48;2185424;80;21033;-77
2021/09/25 06:52:37;;;;;;;10.30;7.92;;;;;;;15.76;77.38;100134.52;2153665;81;20969;-75
2021/09/25 06:55:38;;;;;;;12.45;8.18;;;;;;;15.81;77.15;100134.23;2138541;81;21004;-77
2021/09/25 06:58:40;;;;;;;10.85;8.28;;;;;;;15.87;77.11;100131.26;2166604;80;21023;-77
2021/09/25 07:01:42;;;;;;;12.23;7.40;;;;;;;15.91;77.01;100133.86;2145959;81;21017;-79
2021/09/25 07:04:43;;;;;;;12.20;8.30;;;;;;;15.97;76.96;100131.72;2190258;80;20977;-78
2021/09/25 07:07:45;;;;;;;9.95;7.42;;;;;;;16.04;76.86;100132.54;2187039;80;20979;-81
2021/09/25 07:10:48;;;;;;;10.05;7.78;;;;;;;16.10;76.78;100136.26;2181455;80;21044;-75
2021/09/25 07:13:50;;;;;;;13.55;8.23;;;;;;;16.16;76.82;100134.63;2184887;80;21414;-76
2021/09/25 07:16:51;;;;;;;9.68;7.78;;;;;;;16.21;76.59;100143.70;2185306;80;21455;-76
2021/09/25 07:19:53;;;;;;;9.30;8.03;;;;;;;16.25;76.53;100142.28;2186270;80;21007;-78
2021/09/25 07:22:54;;;;;;;9.18;7.65;;;;;;;16.29;76.37;100143.52;2153167;81;20996;-76
2021/09/25 07:25:56;;;;;;;9.53;7.25;;;;;;;16.33;76.35;100148.78;2153037;81;21098;-78
2021/09/25 07:28:58;;;;;;;10.23;7.20;;;;;;;16.39;76.16;100152.98;2146632;80;21528;-78
2021/09/25 07:31:59;;;;;;;7.83;6.58;;;;;;;16.42;76.08;100152.09;2147021;81;21068;-78
2021/09/25 07:35:01;;;;;;;12.43;7.05;;;;;;;16.46;76.02;100157.86;2152033;81;21023;-78
2021/09/25 07:38:05;;;;;;;9.60;7.20;;;;;;;16.50;75.89;100153.23;2157245;81;21058;-79
2021/09/25 07:41:07;;;;;;;8.68;6.72;;;;;;;16.56;75.95;100160.45;2156614;81;20978;-78
2021/09/25 07:44:08;;;;;;;9.33;6.97;;;;;;;16.61;75.70;100155.80;2157069;81;21547;-80
2021/09/25 07:47:10;;;;;;;9.93;7.47;;;;;;;16.67;75.45;100158.17;2157284;80;21032;-80
2021/09/25 07:50:12;;;;;;;10.78;7.20;;;;;;;16.71;75.48;100160.24;2147159;81;20972;-80
2021/09/25 07:53:14;;;;;;;9.23;6.42;;;;;;;16.76;75.33;100157.80;2139072;81;21078;-79
2021/09/25 07:56:16;;;;;;;9.13;6.53;;;;;;;16.83;75.21;100166.35;2155794;81;21024;-79
2021/09/25 07:59:17;;;;;;;11.57;6.75;;;;;;;16.89;74.99;100162.84;2151087;81;21023;-77
2021/09/25 08:02:20;;;;;;;6.90;5.95;;;;;;;16.94;74.57;100159.85;2152718;81;21033;-79
2021/09/25 08:05:22;;;;;;;8.55;6.30;;;;;;;16.98;74.63;100166.46;2142571;81;21342;-79
2021/09/25 08:08:23;;;;;;;8.65;5.87;;;;;;;17.05;74.56;100170.98;2171026;80;21035;-79
2021/09/25 08:11:25;;;;;;;11.30;6.67;;;;;;;17.10;74.37;100163.16;2179225;80;21019;-79
2021/09/25 08:14:27;;;;;;;10.48;5.80;;;;;;;17.18;74.28;100168.30;2173795;80;21506;-79
2021/09/25 08:17:28;;;;;;;9.45;5.62;;;;;;;17.22;74.02;100168.17;2173275;80;20975;-78
2021/09/25 08:20:30;;;;;;;7.67;5.83;;;;;;;17.29;73.81;100170.34;2231023;78;21005;-79
2021/09/25 08:23:31;;;;;;;7.65;5.62;;;;;;;17.34;73.59;100168.35;2229574;78;21007;-79
2021/09/25 08:26:33;;;;;;;7.95;5.60;;;;;;;17.41;73.67;100169.99;2228855;78;21688;-78
2021/09/25 08:29:35;;;;;;;6.62;5.70;;;;;;;17.53;73.67;100171.50;2228070;79;21155;-79
2021/09/25 08:45:13;;;;;;;5.80;5.20;;;;;;;18.43;71.83;100179.58;2250812;78;22044;-76
2021/09/25 08:48:15;;;;;;;5.87;5.20;;;;;;;18.39;71.46;100187.78;2214127;79;20969;-76
2021/09/25 08:51:16;;;;;;;6.05;4.90;;;;;;;18.35;71.06;100191.40;2214513;79;21015;-77
2021/09/25 08:54:18;;;;;;;5.67;5.08;;;;;;;18.36;70.98;100190.38;2213903;79;21469;-77
2021/09/25 08:57:20;;;;;;;14.18;5.67;;;;;;;18.39;70.66;100186.44;2215470;79;21586;-76
2021/09/25 09:00:45;;;;;;;9.98;5.78;;;;;;;18.45;70.81;100184.23;2211635;79;21485;-75
2021/09/25 09:03:51;;;;;;;11.48;5.25;;;;;;;18.54;70.50;100176.20;2205203;79;21558;-76
2021/09/25 09:06:52;;;;;;;10.18;5.25;;;;;;;18.75;70.59;100189.84;2216657;79;21010;-77
2021/09/25 09:09:54;;;;;;;6.92;4.80;;;;;;;18.92;69.96;100186.08;2208123;79;21013;-75
2021/09/25 09:12:56;;;;;;;10.53;5.30;;;;;;;19.02;69.65;100193.11;2211413;79;20983;-75
2021/09/25 09:16:03;;;;;;;9.50;5.12;;;;;;;19.16;69.39;100189.78;2207341;79;21626;-74
2021/09/25 09:19:05;;;;;;;6.62;5.00;;;;;;;19.25;69.06;100184.94;2204613;79;20982;-76
2021/09/25 09:22:07;;;;;;;7.28;5.12;;;;;;;19.31;68.27;100191.30;2216188;79;21034;-76
2021/09/25 09:25:10;;;;;;;6.03;4.40;;;;;;;19.42;68.45;100195.95;2208210;79;20994;-77
2021/09/25 09:28:25;;;;;;;5.78;4.62;;;;;;;19.49;67.28;100187.30;2213369;79;20974;-76
2021/09/25 09:31:28;;;;;;;7.65;4.95;;;;;;;19.51;67.43;100199.16;2211438;79;21040;-77
2021/09/25 09:34:37;;;;;;;6.95;4.87;;;;;;;19.57;66.78;100204.50;2213597;79;21028;-78
2021/09/25 09:37:38;;;;;;;7.10;4.22;;;;;;;19.65;67.18;100196.63;2211930;79;20980;-78
2021/09/25 09:40:40;;;;;;;7.87;5.20;;;;;;;19.75;66.77;100194.80;2207916;79;21623;-77
2021/09/25 09:43:42;;;;;;;6.12;4.42;;;;;;;19.84;66.49;100203.68;2211800;79;21493;-77
2021/09/25 09:46:53;;;;;;;10.13;4.80;;;;;;;19.90;65.70;100196.05;2196789;80;21544;-78
2021/09/25 09:49:57;;;;;;;7.17;4.70;;;;;;;19.92;65.74;100202.03;2199935;80;21041;-79
2021/09/25 09:53:13;;;;;;;7.12;4.50;;;;;;;19.95;65.21;100206.67;2203826;80;21483;-79
2021/09/25 09:56:24;;;;;;;6.58;4.80;;;;;;;19.96;65.18;100209.66;2198386;80;20962;-80
2021/09/25 09:59:27;;;;;;;6.45;4.45;;;;;;;20.00;65.35;100213.03;2191921;80;21058;-78
2021/09/25 10:02:29;;;;;;;9.58;5.17;;;;;;;19.99;65.21;100218.12;2195508;80;20999;-75
2021/09/25 10:05:31;;;;;;;10.68;5.47;;;;;;;20.03;65.09;100215.80;2200046;80;21012;-75
2021/09/25 10:08:34;;;;;;;6.92;4.60;;;;;;;20.08;65.20;100215.95;2193881;80;20960;-76
2021/09/25 10:11:37;;;;;;;6.53;4.87;;;;;;;20.07;64.55;100216.44;2198600;79;20936;-75
2021/09/25 10:14:43;;;;;;;8.48;4.65;;;;;;;20.06;64.87;100226.93;2187541;80;21412;-75
2021/09/25 10:17:45;;;;;;;8.40;4.85;;;;;;;19.99;63.92;100219.97;2198144;80;21053;-77
2021/09/25 10:20:47;;;;;;;7.67;4.50;;;;;;;19.95;64.26;100225.00;2197289;80;21045;-77
2021/09/25 10:23:54;;;;;;;7.60;4.67;;;;;;;19.99;64.64;100226.20;2196163;79;20994;-76
2021/09/25 10:26:56;;;;;;;6.95;5.20;;;;;;;20.07;64.45;100220.48;2190199;80;21091;-77
2021/09/25 10:30:00;;;;;;;10.08;5.42;;;;;;;20.10;64.37;100220.06;2192352;80;21027;-76
2021/09/25 10:33:09;;;;;;;8.40;5.10;;;;;;;20.13;64.10;100220.95;2194935;80;21034;-76
2021/09/25 10:36:15;;;;;;;9.13;4.83;;;;;;;20.13;63.62;100229.03;2186872;80;20979;-76
2021/09/25 10:39:33;;;;;;;11.45;6.10;;;;;;;20.09;63.72;100210.31;2170043;80;21580;-76
2021/09/25 10:42:46;;;;;;;6.05;4.78;;;;;;;20.29;63.82;100228.91;2196533;80;21070;-76
2021/09/25 10:45:55;;;;;;;6.30;4.47;;;;;;;20.38;64.23;100229.41;2197117;80;21080;-77
2021/09/25 10:48:57;;;;;;;5.40;4.43;;;;;;;20.47;62.79;100224.52;2200286;80;20991;-77
2021/09/25 10:51:58;;;;;;;5.47;4.40;;;;;;;20.54;63.21;100230.67;2193190;80;21484;-76
2021/09/25 10:55:23;;;;;;;5.55;4.10;;;;;;;20.72;63.29;100231.13;2197612;80;20987;-78
2021/09/25 10:58:36;;;;;;;5.85;3.45;;;;;;;20.87;62.76;100226.67;2201004;80;21484;-71
2021/09/25 11:01:41;;;;;;;7.87;4.17;;;;;;;20.95;62.82;100220.41;2204222;80;21324;-77
2021/09/25 11:04:42;;;;;;;8.30;4.70;;;;;;;21.10;62.83;100228.57;2196595;80;20952;-77
2021/09/25 11:07:49;;;;;;;5.40;4.28;;;;;;;21.14;61.56;100229.20;2195907;80;20979;-77
2021/09/25 11:11:13;;;;;;;8.13;4.60;;;;;;;21.21;62.06;100236.67;2190328;80;21390;-77
2021/09/25 11:14:21;;;;;;;14.45;7.58;;;;;;;21.37;62.11;100231.14;2195525;80;21068;-79
2021/09/25 11:17:29;;;;;;;10.72;4.55;;;;;;;21.59;61.71;100227.82;2193824;80;20987;-79
2021/09/25 11:20:34;;;;;;;5.97;4.53;;;;;;;21.74;60.91;100224.63;2191362;80;21090;-81
2021/09/25 11:23:44;;;;;;;5.85;4.42;;;;;;;21.81;60.18;100225.33;2204302;80;20986;-77
2021/09/25 11:26:46;;;;;;;17.00;7.95;;;;;;;21.93;60.05;100231.52;2194324;80;20980;-81
2021/09/25 11:30:25;;;;;;;10.00;4.40;;;;;;;21.94;59.71;100227.23;2198876;80;20997;-80
2021/09/25 11:33:27;;;;;;;10.68;5.33;;;;;;;21.99;59.81;100228.39;2195959;80;21002;-79
2021/09/25 11:36:29;;;;;;;8.93;4.87;;;;;;;22.11;59.42;100229.19;2195395;80;20935;-80
2021/09/25 11:39:47;;;;;;;4.83;4.28;;;;;;;22.16;58.55;100226.59;2204146;80;21050;-79
2021/09/25 11:42:48;;;;;;;5.17;3.95;;;;;;;22.27;59.55;100228.97;2195581;80;21549;-80
2021/09/25 11:45:53;;;;;;;5.95;4.30;;;;;;;22.30;58.50;100227.13;2189300;80;20992;-77
2021/09/25 11:48:58;;;;;;;7.58;4.75;;;;;;;22.28;58.28;100226.04;2183969;80;21509;-80
2021/09/25 11:51:59;;;;;;;9.35;4.12;;;;;;;22.26;58.20;100225.45;2181053;80;21044;-79
2021/09/25 11:55:01;;;;;;;6.87;3.77;;;;;;;22.30;58.50;100226.63;2175333;80;21005;-78
2021/09/25 11:58:10;;;;;;;10.78;5.08;;;;;;;22.23;58.07;100229.17;2180974;80;20997;-79
2021/09/25 12:01:11;;;;;;;9.60;4.20;;;;;;;22.04;57.80;100231.20;2182904;80;21007;-81
2021/09/25 12:04:15;;;;;;;4.22;3.40;;;;;;;21.91;58.10;100231.77;2180214;80;20941;-79
2021/09/25 12:07:16;;;;;;;5.10;3.25;;;;;;;21.81;57.58;100234.25;2185776;80;21762;-80
2021/09/25 12:10:30;;;;;;;6.58;3.90;;;;;;;21.72;57.62;100232.98;2182549;80;20998;-79
2021/09/25 12:13:34;;;;;;;5.35;4.28;;;;;;;21.66;57.66;100240.14;2184319;80;20982;-79
2021/09/25 12:16:35;;;;;;;5.75;3.65;;;;;;;21.52;57.54;100240.64;2181865;80;21031;-79
2021/09/25 12:19:37;;;;;;;5.95;4.33;;;;;;;21.38;57.73;100238.17;2181140;80;20972;-80
2021/09/25 12:22:42;;;;;;;7.65;4.15;;;;;;;21.26;57.58;100233.28;2172908;80;21459;-79
2021/09/25 12:25:43;;;;;;;4.95;3.60;;;;;;;21.02;57.82;100233.77;2175837;80;21013;-78
2021/09/25 12:28:54;;;;;;;7.47;3.75;;;;;;;20.88;57.97;100235.86;2178179;80;21088;-80
2021/09/25 12:32:01;;;;;;;4.78;3.30;;;;;;;20.79;58.42;100235.91;2181233;80;21015;-80
2021/09/25 12:35:07;;;;;;;5.70;3.60;;;;;;;20.76;58.58;100244.46;2177410;80;20943;-80
2021/09/25 12:38:14;;;;;;;5.62;3.70;;;;;;;20.78;58.87;100243.72;2184640;80;21240;-79
2021/09/25 12:41:21;;;;;;;5.60;3.55;;;;;;;20.81;59.04;100240.02;2177059;80;21042;-78
2021/09/25 12:44:25;;;;;;;5.62;3.87;;;;;;;20.77;59.24;100255.00;2187656;79;21007;-78
2021/09/25 12:47:33;;;;;;;7.92;4.08;;;;;;;20.76;59.45;100243.11;2206932;79;21467;-79
2021/09/25 12:50:35;;;;;;;6.33;3.70;;;;;;;20.79;59.38;100244.81;2199307;79;20987;-78
2021/09/25 12:53:36;;;;;;;10.80;4.00;;;;;;;20.89;59.45;100248.31;2209207;79;21050;-80
2021/09/25 12:56:49;;;;;;;6.35;3.85;;;;;;;20.96;59.52;100246.84;2200723;79;20928;-80
2021/09/25 13:00:00;;;;;;;4.70;3.55;;;;;;;20.96;59.50;100244.97;2202384;79;21060;-78
2021/09/25 13:03:02;;;;;;;6.15;4.03;;;;;;;20.94;58.93;100244.37;2206392;79;20982;-81
2021/09/25 13:06:13;;;;;;;5.17;3.67;;;;;;;20.92;59.39;100248.34;2206055;79;20985;-80
2021/09/25 13:09:15;;;;;;;6.08;3.92;;;;;;;20.85;59.42;100251.16;2204812;79;20978;-79
2021/09/25 13:12:37;;;;;;;6.75;3.37;;;;;;;20.75;59.13;100247.69;2202649;79;21064;-79
2021/09/25 13:15:40;;;;;;;5.53;3.52;;;;;;;20.64;59.56;100244.94;2206436;79;21025;-81
2021/09/25 13:18:41;;;;;;;5.60;3.80;;;;;;;20.54;59.58;100249.02;2203724;79;20931;-83
2021/09/25 13:21:43;;;;;;;8.58;3.50;;;;;;;20.48;59.75;100253.13;2203124;79;21010;-82
2021/09/25 13:24:45;;;;;;;5.50;3.47;;;;;;;20.42;60.10;100253.52;2203438;79;20994;-83
2021/09/25 13:27:48;;;;;;;7.05;3.30;;;;;;;20.38;60.22;100263.94;2207247;79;21012;-82
2021/09/25 13:30:50;;;;;;;6.50;3.72;;;;;;;20.34;60.40;100267.30;2196416;79;21063;-82
2021/09/25 13:33:52;;;;;;;5.10;3.92;;;;;;;20.30;60.53;100256.66;2206638;79;21535;-81
2021/09/25 13:36:53;;;;;;;7.75;4.30;;;;;;;20.27;60.48;100262.51;2203424;79;20985;-80
2021/09/25 13:39:56;;;;;;;6.42;3.77;;;;;;;20.25;61.05;100263.28;2200457;79;20997;-81
2021/09/25 13:42:57;;;;;;;4.62;3.42;;;;;;;20.24;60.97;100260.27;2197988;79;21015;-80
2021/09/25 13:45:59;;;;;;;7.80;3.10;;;;;;;20.25;61.12;100261.94;2203418;79;21061;-80
2021/09/25 13:49:00;;;;;;;4.42;3.33;;;;;;;20.26;61.03;100267.61;2201050;80;21270;-79
2021/09/25 13:52:03;;;;;;;8.65;3.35;;;;;;;20.26;61.27;100263.57;2190835;80;21018;-81
2021/09/25 13:55:05;;;;;;;5.85;3.12;;;;;;;20.18;61.20;100263.34;2191765;80;21043;-79
2021/09/25 13:58:07;;;;;;;5.47;3.77;;;;;;;20.09;61.30;100267.41;2195030;80;21512;-77
2021/09/25 14:01:08;;;;;;;6.05;3.35;;;;;;;20.02;61.28;100272.88;2193663;80;20992;-80
2021/09/25 14:04:10;;;;;;;5.72;3.62;;;;;;;19.98;61.61;100277.05;2195549;80;20990;-79
2021/09/25 14:07:11;;;;;;;8.08;3.33;;;;;;;19.97;61.64;100275.95;2192305;80;20986;-78
2021/09/25 14:10:13;;;;;;;8.13;3.72;;;;;;;19.96;61.71;100276.45;2193801;80;21011;-81
2021/09/25 14:13:15;;;;;;;5.00;3.62;;;;;;;19.99;61.93;100282.77;2193748;80;20998;-79
2021/09/25 14:16:17;;;;;;;5.72;3.65;;;;;;;19.97;61.95;100280.80;2197102;80;21597;-76
2021/09/25 14:19:19;;;;;;;4.67;3.90;;;;;;;19.99;62.07;100281.41;2198759;80;21455;-78
2021/09/25 14:22:20;;;;;;;6.90;4.28;;;;;;;20.01;61.95;100279.30;2198887;80;20978;-80